createdAt,value
2023-03-13T00:01:24.514Z,13.85
2023-03-13T00:03:51.707Z,13.84
2023-03-13T00:06:19.099Z,13.85
2023-03-13T00:08:46.436Z,13.86
2023-03-13T00:11:14.450Z,13.88
2023-03-13T00:13:42.262Z,13.87
2023-03-13T00:16:10.786Z,13.89
2023-03-13T00:18:38.411Z,13.89
2023-03-13T00:21:07.052Z,13.85
2023-03-13T00:23:34.901Z,13.87
2023-03-13T00:26:03.370Z,13.87
2023-03-13T00:28:32.660Z,13.86
2023-03-13T00:31:01.808Z,13.87
2023-03-13T00:33:29.167Z,13.87
2023-03-13T00:35:59.580Z,13.91
2023-03-13T00:38:27.696Z,13.91
2023-03-13T00:40:59.355Z,13.92
2023-03-13T00:43:26.457Z,13.95
2023-03-13T00:45:53.620Z,13.92
2023-03-13T00:48:20.711Z,13.92
2023-03-13T00:50:47.916Z,13.89
2023-03-13T00:53:15.194Z,13.88
2023-03-13T00:55:50.535Z,13.91
2023-03-13T00:58:17.600Z,13.93
2023-03-13T01:00:44.611Z,13.95
2023-03-13T01:03:11.799Z,13.94
2023-03-13T01:05:38.863Z,13.91
2023-03-13T01:08:06.005Z,13.90
2023-03-13T01:10:33.012Z,13.90
2023-03-13T01:13:00.069Z,13.89
2023-03-13T01:15:27.263Z,13.88
2023-03-13T01:17:54.281Z,13.88
2023-03-13T01:20:21.489Z,13.86
2023-03-13T01:22:48.545Z,13.89
2023-03-13T01:25:15.796Z,13.90
2023-03-13T01:27:42.872Z,13.92
2023-03-13T01:30:10.641Z,13.92
2023-03-13T01:32:37.740Z,13.92
2023-03-13T01:35:05.070Z,13.92
2023-03-13T01:37:32.037Z,13.94
2023-03-13T01:39:59.259Z,13.94
2023-03-13T01:42:26.237Z,13.92
2023-03-13T01:44:55.929Z,13.91
2023-03-13T01:47:23.001Z,13.93
2023-03-13T01:49:51.726Z,13.94
2023-03-13T01:52:21.960Z,13.93
2023-03-13T01:54:52.257Z,13.92
2023-03-13T01:57:22.354Z,13.93
2023-03-13T01:59:53.321Z,13.93
2023-03-13T02:02:20.885Z,13.96
2023-03-13T02:04:49.402Z,13.97
2023-03-13T02:07:18.792Z,13.96
2023-03-13T02:09:49.630Z,13.99
2023-03-13T02:12:19.588Z,13.99
2023-03-13T02:14:47.358Z,14.00
2023-03-13T02:17:14.648Z,13.99
2023-03-13T02:19:45.079Z,14.00
2023-03-13T02:22:14.989Z,14.01
2023-03-13T02:24:44.890Z,14.00
2023-03-13T02:27:12.492Z,13.99
2023-03-13T02:29:39.405Z,14.04
2023-03-13T02:32:06.563Z,14.00
2023-03-13T02:34:35.815Z,14.00
2023-03-13T02:37:03.592Z,14.00
2023-03-13T02:39:32.075Z,14.01
2023-03-13T02:42:00.385Z,14.03
2023-03-13T02:44:27.612Z,14.04
2023-03-13T02:46:54.515Z,14.03
2023-03-13T02:49:24.610Z,14.04
2023-03-13T02:51:52.781Z,14.01
2023-03-13T02:54:22.729Z,14.00
2023-03-13T02:56:52.382Z,13.94
2023-03-13T02:59:19.249Z,13.93
2023-03-13T03:01:46.291Z,13.91
2023-03-13T03:04:13.427Z,13.91
2023-03-13T03:06:40.295Z,13.86
2023-03-13T03:09:07.168Z,13.86
2023-03-13T03:11:34.005Z,13.87
2023-03-13T03:14:01.569Z,13.84
2023-03-13T03:16:28.610Z,13.84
2023-03-13T03:18:55.455Z,13.84
2023-03-13T03:21:24.234Z,13.85
2023-03-13T03:23:51.628Z,13.86
2023-03-13T03:26:18.514Z,13.85
2023-03-13T03:28:45.662Z,13.84
2023-03-13T03:31:14.132Z,13.83
2023-03-13T03:33:41.060Z,13.82
2023-03-13T03:36:09.464Z,13.79
2023-03-13T03:38:36.676Z,13.78
2023-03-13T03:41:03.698Z,13.82
2023-03-13T03:43:30.567Z,13.80
2023-03-13T03:45:57.518Z,13.80
2023-03-13T03:48:24.498Z,13.78
2023-03-13T03:50:51.407Z,13.77
2023-03-13T03:53:18.268Z,13.78
2023-03-13T03:55:45.514Z,13.76
2023-03-13T03:58:12.523Z,13.78
2023-03-13T04:00:39.636Z,13.81
2023-03-13T04:03:06.820Z,13.85
2023-03-13T04:05:33.694Z,13.88
2023-03-13T04:08:00.638Z,13.86
2023-03-13T04:10:27.502Z,13.85
2023-03-13T04:12:54.384Z,13.84
2023-03-13T04:15:21.311Z,13.84
2023-03-13T04:17:48.238Z,13.86
2023-03-13T04:20:15.340Z,13.84
2023-03-13T04:22:42.856Z,13.85
2023-03-13T04:25:10.320Z,13.85
2023-03-13T04:27:37.245Z,13.86
2023-03-13T04:30:04.884Z,13.85
2023-03-13T04:32:31.833Z,13.87
2023-03-13T04:34:59.141Z,13.86
2023-03-13T04:37:26.201Z,13.86
2023-03-13T04:39:53.133Z,13.89
2023-03-13T04:42:20.075Z,13.91
2023-03-13T04:44:46.992Z,13.93
2023-03-13T04:47:14.038Z,13.91
2023-03-13T04:49:40.987Z,13.92
2023-03-13T04:52:07.934Z,13.94
2023-03-13T04:54:34.800Z,13.97
2023-03-13T04:57:01.729Z,13.98
2023-03-13T04:59:28.612Z,13.97
2023-03-13T05:01:55.574Z,13.97
2023-03-13T05:04:22.428Z,13.93
2023-03-13T05:06:49.266Z,13.92
2023-03-13T05:09:16.189Z,13.92
2023-03-13T05:11:43.067Z,13.92
2023-03-13T05:14:13.079Z,13.88
2023-03-13T05:16:39.981Z,13.91
2023-03-13T05:19:06.842Z,13.95
2023-03-13T05:21:33.681Z,13.97
2023-03-13T05:24:00.592Z,13.96
2023-03-13T05:26:27.547Z,13.95
2023-03-13T05:28:54.376Z,13.93
2023-03-13T05:31:21.293Z,13.87
2023-03-13T05:33:48.202Z,13.85
2023-03-13T05:36:15.115Z,13.82
2023-03-13T05:38:42.279Z,13.83
2023-03-13T05:41:09.152Z,13.81
2023-03-13T05:43:36.042Z,13.80
2023-03-13T05:46:03.024Z,13.81
2023-03-13T05:48:29.916Z,13.81
2023-03-13T05:50:56.861Z,13.84
2023-03-13T05:53:23.714Z,13.85
2023-03-13T05:55:50.604Z,13.86
2023-03-13T05:58:17.554Z,13.89
2023-03-13T06:00:44.726Z,13.92
2023-03-13T06:03:17.388Z,13.98
2023-03-13T06:05:44.325Z,13.98
2023-03-13T06:08:11.211Z,13.97
2023-03-13T06:10:38.092Z,13.98
2023-03-13T06:13:18.748Z,14.00
2023-03-13T06:15:50.138Z,14.03
2023-03-13T06:18:17.222Z,14.01
2023-03-13T06:20:44.196Z,13.99
2023-03-13T06:23:11.220Z,14.04
2023-03-13T06:25:39.020Z,14.06
2023-03-13T06:28:06.178Z,14.06
2023-03-13T06:30:33.243Z,14.09
2023-03-13T06:33:00.483Z,14.08
2023-03-13T06:35:27.564Z,14.07
2023-03-13T06:37:54.644Z,14.05
2023-03-13T06:40:21.808Z,14.01
2023-03-13T06:42:48.877Z,14.01
2023-03-13T06:45:15.992Z,14.04
2023-03-13T06:47:43.144Z,14.06
2023-03-13T06:50:10.694Z,14.03
2023-03-13T06:52:43.853Z,14.06
2023-03-13T06:55:12.084Z,14.10
2023-03-13T06:57:39.250Z,14.09
2023-03-13T07:00:07.651Z,14.08
2023-03-13T07:02:34.636Z,14.09
2023-03-13T07:05:06.055Z,14.11
2023-03-13T07:07:34.447Z,14.08
2023-03-13T07:10:01.977Z,14.09
2023-03-13T07:12:29.362Z,14.09
2023-03-13T07:15:00.374Z,14.10
2023-03-13T07:17:27.496Z,14.14
2023-03-13T07:19:54.694Z,14.20
2023-03-13T07:22:21.736Z,14.25
2023-03-13T07:24:49.386Z,14.25
2023-03-13T07:27:17.884Z,14.25
2023-03-13T07:29:45.495Z,14.24
2023-03-13T07:32:12.691Z,14.27
2023-03-13T07:34:39.782Z,14.30
2023-03-13T07:37:06.803Z,14.30
2023-03-13T07:39:33.824Z,14.31
2023-03-13T07:42:00.893Z,14.34
2023-03-13T07:44:27.929Z,14.38
2023-03-13T07:46:55.017Z,14.36
2023-03-13T07:49:22.042Z,14.33
2023-03-13T07:51:51.601Z,14.38
2023-03-13T07:54:18.781Z,14.39
2023-03-13T07:56:45.879Z,14.44
2023-03-13T07:59:12.991Z,14.46
2023-03-13T08:01:40.103Z,14.49
2023-03-13T08:04:07.673Z,14.48
2023-03-13T08:06:36.992Z,14.48
2023-03-13T08:09:04.932Z,14.48
2023-03-13T08:11:33.658Z,14.47
2023-03-13T08:14:00.642Z,14.46
2023-03-13T08:16:29.212Z,14.40
2023-03-13T08:18:57.327Z,14.39
2023-03-13T08:21:28.041Z,14.38
2023-03-13T08:23:56.136Z,14.39
2023-03-13T08:26:24.210Z,14.37
2023-03-13T08:28:53.807Z,14.36
2023-03-13T08:31:22.375Z,14.37
2023-03-13T08:33:49.718Z,14.34
2023-03-13T08:36:19.625Z,14.31
2023-03-13T08:38:47.725Z,14.31
2023-03-13T08:41:17.350Z,14.31
2023-03-13T08:43:44.662Z,14.30
2023-03-13T08:46:12.472Z,14.34
2023-03-13T08:48:39.760Z,14.34
2023-03-13T08:51:08.046Z,14.32
2023-03-13T08:53:35.997Z,14.36
2023-03-13T08:56:03.580Z,14.37
2023-03-13T08:58:30.602Z,14.37
2023-03-13T09:01:00.708Z,14.42
2023-03-13T09:03:27.829Z,14.44
2023-03-13T09:05:56.569Z,14.50
2023-03-13T09:08:23.906Z,14.55
2023-03-13T09:10:54.215Z,14.60
2023-03-13T09:13:21.277Z,14.65
2023-03-13T09:15:54.492Z,14.69
2023-03-13T09:18:21.877Z,14.77
2023-03-13T09:20:52.302Z,14.91
2023-03-13T09:23:19.696Z,14.98
2023-03-13T09:25:47.054Z,15.05
2023-03-13T09:28:14.297Z,15.13
2023-03-13T09:30:41.364Z,15.18
2023-03-13T09:33:08.431Z,15.22
2023-03-13T09:35:35.654Z,15.26
2023-03-13T09:38:02.776Z,15.34
2023-03-13T09:40:30.158Z,15.36
2023-03-13T09:42:59.185Z,15.45
2023-03-13T09:45:27.741Z,15.46
2023-03-13T09:48:00.263Z,15.52
2023-03-13T09:50:30.183Z,15.56
2023-03-13T09:53:01.023Z,15.62
2023-03-13T09:55:31.152Z,15.68
2023-03-13T09:58:01.486Z,15.64
2023-03-13T10:00:32.092Z,15.61
2023-03-13T10:02:59.719Z,15.61
2023-03-13T10:05:28.320Z,15.55
2023-03-13T10:08:03.745Z,15.47
2023-03-13T10:10:34.303Z,15.40
2023-03-13T10:13:10.924Z,15.35
2023-03-13T10:15:41.074Z,15.38
2023-03-13T10:18:11.348Z,15.41
2023-03-13T10:20:39.913Z,15.42
2023-03-13T10:23:13.893Z,15.41
2023-03-13T10:25:41.658Z,15.49
2023-03-13T10:28:12.053Z,15.47
2023-03-13T10:30:43.966Z,15.49
2023-03-13T10:33:12.543Z,15.50
2023-03-13T10:35:42.394Z,15.48
2023-03-13T10:38:12.536Z,15.50
2023-03-13T10:40:40.431Z,15.45
2023-03-13T10:43:14.985Z,15.44
2023-03-13T10:45:42.465Z,15.43
2023-03-13T10:48:13.186Z,15.48
2023-03-13T10:50:43.110Z,15.49
2023-03-13T10:53:21.619Z,15.49
2023-03-13T10:55:49.178Z,15.51
2023-03-13T10:58:19.664Z,15.49
2023-03-13T11:00:46.950Z,15.52
2023-03-13T11:03:18.992Z,15.57
2023-03-13T11:05:55.851Z,15.62
2023-03-13T11:08:25.193Z,15.67
2023-03-13T11:10:53.900Z,15.76
2023-03-13T11:13:35.537Z,15.82
2023-03-13T11:16:08.634Z,15.77
2023-03-13T11:18:39.097Z,15.73
2023-03-13T11:21:17.541Z,15.79
2023-03-13T11:23:48.386Z,15.85
2023-03-13T11:26:16.846Z,15.87
2023-03-13T11:28:51.178Z,15.88
2023-03-13T11:31:21.440Z,15.91
2023-03-13T11:33:58.201Z,15.94
2023-03-13T11:36:29.253Z,15.91
2023-03-13T11:39:03.106Z,15.93
2023-03-13T11:41:36.148Z,15.96
2023-03-13T11:44:05.741Z,16.00
2023-03-13T11:46:37.817Z,16.00
2023-03-13T11:49:08.124Z,16.07
2023-03-13T11:51:44.902Z,16.12
2023-03-13T11:54:15.096Z,16.16
2023-03-13T11:56:45.322Z,16.10
2023-03-13T11:59:16.708Z,16.03
2023-03-13T12:01:50.029Z,16.03
2023-03-13T12:04:17.635Z,16.03
2023-03-13T12:06:52.864Z,16.04
2023-03-13T12:09:27.844Z,15.97
2023-03-13T12:12:03.802Z,15.99
2023-03-13T12:14:34.550Z,15.97
2023-03-13T12:17:04.600Z,15.98
2023-03-13T12:19:33.304Z,16.01
2023-03-13T12:22:07.927Z,15.99
2023-03-13T12:24:39.016Z,15.96
2023-03-13T12:27:10.412Z,15.96
2023-03-13T12:29:43.108Z,15.99
2023-03-13T12:32:15.834Z,15.98
2023-03-13T12:34:46.300Z,15.95
2023-03-13T12:37:23.467Z,15.93
2023-03-13T12:39:55.544Z,15.93
2023-03-13T12:42:30.194Z,15.90
2023-03-13T12:45:02.884Z,15.86
2023-03-13T12:47:37.586Z,15.83
2023-03-13T12:50:06.151Z,15.80
2023-03-13T12:52:37.900Z,15.80
2023-03-13T12:55:08.476Z,15.80
2023-03-13T12:57:38.088Z,15.78
2023-03-13T13:00:14.273Z,15.80
2023-03-13T13:02:42.089Z,15.82
2023-03-13T13:05:21.631Z,15.86
2023-03-13T13:10:46.032Z,15.74
2023-03-13T13:13:14.840Z,15.66
2023-03-13T13:15:47.531Z,15.57
2023-03-13T13:18:16.953Z,15.52
2023-03-13T13:20:46.699Z,15.46
2023-03-13T13:23:18.503Z,15.38
2023-03-13T13:26:04.140Z,15.36
2023-03-13T13:28:35.570Z,15.35
2023-03-13T13:31:31.001Z,15.32
2023-03-13T13:33:59.605Z,15.33
2023-03-13T13:36:29.195Z,15.28
2023-03-13T13:38:57.659Z,15.19
2023-03-13T13:41:27.304Z,15.17
2023-03-13T13:43:57.915Z,15.20
2023-03-13T13:46:25.829Z,15.20
2023-03-13T13:48:56.551Z,15.17
2023-03-13T13:51:25.705Z,15.20
2023-03-13T13:53:56.544Z,15.19
2023-03-13T13:56:27.685Z,15.19
2023-03-13T13:59:02.153Z,15.21
2023-03-13T14:01:30.203Z,15.26
2023-03-13T14:04:00.628Z,15.33
2023-03-13T14:06:31.272Z,15.36
2023-03-13T14:09:03.260Z,15.31
2023-03-13T14:11:36.218Z,15.32
2023-03-13T14:14:10.198Z,15.35
2023-03-13T14:16:38.663Z,15.39
2023-03-13T14:19:06.430Z,15.41
2023-03-13T14:21:36.951Z,15.46
2023-03-13T14:24:13.210Z,15.50
2023-03-13T14:26:43.391Z,15.58
2023-03-13T14:29:27.535Z,15.61
2023-03-13T14:31:58.796Z,15.65
2023-03-13T14:34:27.681Z,15.68
2023-03-13T14:37:10.948Z,15.63
2023-03-13T14:39:45.849Z,15.67
2023-03-13T14:42:14.171Z,15.68
2023-03-13T14:44:44.408Z,15.75
2023-03-13T14:47:15.101Z,15.77
2023-03-13T14:49:45.836Z,15.78
2023-03-13T14:52:16.164Z,15.73
2023-03-13T14:54:46.220Z,15.65
2023-03-13T14:57:15.426Z,15.53
2023-03-13T14:59:43.599Z,15.47
2023-03-13T15:02:13.906Z,15.46
2023-03-13T15:04:44.491Z,15.48
2023-03-13T15:07:11.973Z,15.47
2023-03-13T15:09:43.067Z,15.43
2023-03-13T15:12:17.345Z,15.42
2023-03-13T15:14:46.575Z,15.43
2023-03-13T15:17:16.243Z,15.45
2023-03-13T15:19:44.194Z,15.44
2023-03-13T15:22:13.410Z,15.39
2023-03-13T15:24:41.072Z,15.37
2023-03-13T15:27:11.604Z,15.29
2023-03-13T15:29:38.943Z,15.27
2023-03-13T15:32:06.616Z,15.20
2023-03-13T15:34:34.624Z,15.21
2023-03-13T15:37:02.080Z,15.25
2023-03-13T15:39:29.785Z,15.28
2023-03-13T15:42:03.282Z,15.35
2023-03-13T15:44:30.783Z,15.41
2023-03-13T15:46:58.062Z,15.39
2023-03-13T15:49:25.356Z,15.38
2023-03-13T15:51:54.491Z,15.41
2023-03-13T15:54:22.874Z,15.49
2023-03-13T15:56:50.232Z,15.55
2023-03-13T15:59:17.500Z,15.58
2023-03-13T16:01:46.697Z,15.58
2023-03-13T16:04:14.432Z,15.60
2023-03-13T16:06:41.985Z,15.63
2023-03-13T16:09:09.216Z,15.62
2023-03-13T16:11:41.047Z,15.59
2023-03-13T16:14:08.192Z,15.59
2023-03-13T16:16:37.446Z,15.57
2023-03-13T16:19:05.216Z,15.57
2023-03-13T16:21:35.523Z,15.56
2023-03-13T16:24:02.894Z,15.54
2023-03-13T16:26:31.530Z,15.49
2023-03-13T16:28:59.458Z,15.45
2023-03-13T16:31:28.954Z,15.39
2023-03-13T16:33:57.350Z,15.31
2023-03-13T16:36:25.748Z,15.34
2023-03-13T16:38:53.500Z,15.30
2023-03-13T16:41:22.149Z,15.28
2023-03-13T16:43:49.923Z,15.24
2023-03-13T16:46:24.421Z,15.20
2023-03-13T16:48:57.678Z,15.22
2023-03-13T16:54:10.642Z,15.18
2023-03-13T16:56:40.138Z,15.15
2023-03-13T16:59:11.290Z,15.17
2023-03-13T17:01:44.421Z,15.18
2023-03-13T17:04:16.820Z,15.17
2023-03-13T17:09:37.154Z,15.14
2023-03-13T17:12:07.318Z,15.09
2023-03-13T17:14:44.464Z,15.02
2023-03-13T17:17:14.184Z,14.99
2023-03-13T17:19:43.118Z,14.97
2023-03-13T17:22:14.101Z,14.92
2023-03-13T17:24:42.318Z,14.86
2023-03-13T17:27:13.728Z,14.86
2023-03-13T17:29:41.523Z,14.84
2023-03-13T17:32:12.680Z,14.86
2023-03-13T17:34:41.301Z,14.80
2023-03-13T17:37:15.926Z,14.77
2023-03-13T17:39:44.237Z,14.77
2023-03-13T17:42:12.343Z,14.77
2023-03-13T17:44:39.978Z,14.74
2023-03-13T17:47:10.154Z,14.75
2023-03-13T17:49:37.505Z,14.69
2023-03-13T17:52:05.427Z,14.62
2023-03-13T17:54:32.902Z,14.51
2023-03-13T17:57:00.398Z,14.47
2023-03-13T17:59:29.404Z,14.42
2023-03-13T18:01:57.773Z,14.35
2023-03-13T18:04:25.535Z,14.27
2023-03-13T18:06:52.780Z,14.22
2023-03-13T18:09:21.618Z,14.22
2023-03-13T18:11:52.735Z,14.20
2023-03-13T18:14:20.489Z,14.12
2023-03-13T18:16:48.726Z,14.01
2023-03-13T18:19:34.219Z,14.00
2023-03-13T18:22:19.358Z,13.98
2023-03-13T18:24:47.040Z,13.93
2023-03-13T18:27:15.670Z,13.87
2023-03-13T18:29:43.497Z,13.86
2023-03-13T18:32:12.721Z,13.84
2023-03-13T18:34:40.055Z,13.78
2023-03-13T18:37:16.705Z,13.73
2023-03-13T18:39:44.240Z,13.66
2023-03-13T18:42:11.412Z,13.59
2023-03-13T18:44:38.715Z,13.53
2023-03-13T18:47:11.983Z,13.55
2023-03-13T18:49:39.318Z,13.59
2023-03-13T18:52:07.055Z,13.58
2023-03-13T18:54:34.105Z,13.56
2023-03-13T18:57:01.299Z,13.54
2023-03-13T18:59:28.357Z,13.56
2023-03-13T19:01:55.964Z,13.58
2023-03-13T19:04:24.815Z,13.55
2023-03-13T19:06:53.909Z,13.49
2023-03-13T19:12:12.045Z,13.45
2023-03-13T19:14:39.276Z,13.39
2023-03-13T19:17:12.435Z,13.41
2023-03-13T19:19:39.557Z,13.42
2023-03-13T19:22:06.656Z,13.38
2023-03-13T19:24:33.896Z,13.36
2023-03-13T19:27:01.010Z,13.30
2023-03-13T19:29:28.707Z,13.26
2023-03-13T19:31:55.978Z,13.21
2023-03-13T19:34:23.300Z,13.23
2023-03-13T19:36:50.736Z,13.23
2023-03-13T19:39:19.276Z,13.18
2023-03-13T19:41:48.312Z,13.16
2023-03-13T19:44:16.354Z,13.17
2023-03-13T19:46:43.828Z,13.18
2023-03-13T19:49:12.362Z,13.23
2023-03-13T19:51:39.723Z,13.21
2023-03-13T19:54:06.755Z,13.18
2023-03-13T19:56:34.104Z,13.10
2023-03-13T19:59:02.050Z,13.08
2023-03-13T20:01:29.644Z,13.07
2023-03-13T20:03:56.771Z,13.09
2023-03-13T20:06:24.883Z,13.10
2023-03-13T20:08:55.219Z,13.13
2023-03-13T20:11:22.312Z,13.12
2023-03-13T20:13:49.345Z,13.13
2023-03-13T20:16:16.424Z,13.15
2023-03-13T20:18:44.589Z,13.14
2023-03-13T20:21:14.551Z,13.17
2023-03-13T20:23:41.556Z,13.19
2023-03-13T20:26:10.136Z,13.21
2023-03-13T20:28:37.977Z,13.22
2023-03-13T20:31:05.864Z,13.25
2023-03-13T20:33:32.877Z,13.24
2023-03-13T20:36:01.017Z,13.22
2023-03-13T20:38:28.726Z,13.24
2023-03-13T20:40:57.193Z,13.23
2023-03-13T20:43:24.447Z,13.24
2023-03-13T20:45:51.576Z,13.21
2023-03-13T20:48:19.296Z,13.22
2023-03-13T20:50:46.540Z,13.20
2023-03-13T20:53:15.288Z,13.16
2023-03-13T20:55:42.260Z,13.13
2023-03-13T20:58:09.341Z,13.11
2023-03-13T21:00:36.256Z,13.10
2023-03-13T21:03:03.402Z,13.10
2023-03-13T21:05:30.729Z,13.12
2023-03-13T21:07:57.696Z,13.09
2023-03-13T21:10:24.955Z,13.08
2023-03-13T21:12:51.841Z,13.04
2023-03-13T21:15:18.914Z,13.01
2023-03-13T21:17:45.961Z,13.01
2023-03-13T21:20:13.020Z,12.96
2023-03-13T21:22:40.614Z,12.97
2023-03-13T21:25:08.344Z,12.99
2023-03-13T21:27:35.986Z,12.99
2023-03-13T21:30:04.319Z,12.97
2023-03-13T21:32:31.392Z,12.93
2023-03-13T21:34:59.778Z,12.93
2023-03-13T21:37:26.660Z,12.95
2023-03-13T21:39:53.767Z,12.95
2023-03-13T21:42:20.669Z,12.94
2023-03-13T21:44:48.618Z,12.91
2023-03-13T21:47:24.452Z,12.89
2023-03-13T21:49:52.426Z,12.93
2023-03-13T21:52:20.043Z,12.91
2023-03-13T21:54:47.176Z,12.92
2023-03-13T21:57:14.665Z,12.91
2023-03-13T21:59:42.250Z,12.92
2023-03-13T22:02:11.623Z,12.94
2023-03-13T22:04:38.563Z,12.96
2023-03-13T22:07:05.664Z,12.94
2023-03-13T22:09:33.350Z,12.97
2023-03-13T22:12:00.436Z,13.02
2023-03-13T22:14:28.441Z,13.06
2023-03-13T22:16:55.363Z,13.10
2023-03-13T22:19:22.623Z,13.12
2023-03-13T22:21:49.632Z,13.08
2023-03-13T22:24:17.360Z,13.07
2023-03-13T22:26:44.246Z,13.07
2023-03-13T22:29:11.413Z,13.04
2023-03-13T22:31:38.375Z,13.06
2023-03-13T22:34:05.368Z,13.04
2023-03-13T22:36:33.069Z,13.05
2023-03-13T22:38:59.988Z,13.08
2023-03-13T22:41:26.965Z,13.07
2023-03-13T22:43:54.057Z,13.10
2023-03-13T22:46:21.250Z,13.11
2023-03-13T22:48:48.269Z,13.09
2023-03-13T22:51:15.250Z,13.11
2023-03-13T22:53:42.631Z,13.10
2023-03-13T22:56:10.437Z,13.14
2023-03-13T22:58:37.844Z,13.11
2023-03-13T23:01:06.761Z,13.11
2023-03-13T23:03:33.724Z,13.10
2023-03-13T23:06:01.035Z,13.06
2023-03-13T23:08:27.969Z,13.04
2023-03-13T23:10:54.842Z,13.01
2023-03-13T23:13:21.820Z,13.04
2023-03-13T23:15:55.509Z,13.07
2023-03-13T23:18:23.548Z,13.02
2023-03-13T23:20:50.522Z,13.02
2023-03-13T23:23:17.411Z,13.00
2023-03-13T23:25:44.379Z,13.00
2023-03-13T23:28:11.308Z,13.02
2023-03-13T23:30:38.244Z,13.02
2023-03-13T23:33:05.129Z,13.06
2023-03-13T23:35:32.125Z,13.04
2023-03-13T23:37:59.205Z,13.04
2023-03-13T23:40:26.778Z,13.06
2023-03-13T23:42:53.819Z,13.07
2023-03-13T23:45:20.886Z,13.06
2023-03-13T23:47:48.238Z,13.01
2023-03-13T23:50:16.223Z,12.98
2023-03-13T23:52:43.484Z,12.98
2023-03-13T23:55:11.269Z,12.98
2023-03-13T23:57:38.401Z,12.98
